KFFL/FFL METAR and TAF weather

Enter ICAO airport designator
Station Type Date Time Source
KFFL METAR 2020/09/22 21:35 UTC NOAA

KFFL 222135Z AUTO 19007G12KT 170V230 10SM CLR 25/14 A3009 RMK A01


Station Type Date Time Source
KFFL Decoded METAR 2020/09/22 21:35 UTC NOAA

Fair Field, IA, United States (KFFL) 41-03N 091-59W
Sep 22, 2020 - 05:35 PM EDT / 2020.09.22 2135 UTC
Wind: from the S (190 degrees) at 8 MPH (7 KT) gusting to 14 MPH (12 KT) (direction variable):0
Visibility: 10 mile(s):0
Sky conditions: clear
Temperature: 77 F (25 C)
Dew Point: 57 F (14 C)
Relative Humidity: 50%
Pressure (altimeter): 30.09 in. Hg (1018 hPa)
ob: KFFL 222135Z AUTO 19007G12KT 170V230 10SM CLR 25/14 A3009 RMK A01
cycle: 21

Station Type Date Time Source
KFFL TAF UTC NOAA

Error!

Example: see airport list